sensor_id;sensor_type;location;lat;lon;timestamp;temperature;humidity
29255;DHT22;16277;48.890;2.306;2023-07-02T00:14:14;19.90;99.60
29255;DHT22;16277;48.890;2.306;2023-07-02T00:29:19;19.90;99.80
29255;DHT22;16277;48.890;2.306;2023-07-02T00:44:23;19.40;99.90
29255;DHT22;16277;48.890;2.306;2023-07-02T00:59:28;19.30;99.90
29255;DHT22;16277;48.890;2.306;2023-07-02T01:14:34;19.20;99.90
29255;DHT22;16277;48.890;2.306;2023-07-02T01:29:41;19.40;99.90
29255;DHT22;16277;48.890;2.306;2023-07-02T01:44:47;19.20;99.90
29255;DHT22;16277;48.890;2.306;2023-07-02T01:59:51;19.20;99.90
29255;DHT22;16277;48.890;2.306;2023-07-02T02:14:56;18.90;99.90
29255;DHT22;16277;48.890;2.306;2023-07-02T02:30:01;18.80;99.90
29255;DHT22;16277;48.890;2.306;2023-07-02T02:45:09;18.80;99.90
29255;DHT22;16277;48.890;2.306;2023-07-02T03:00:14;18.30;99.90
29255;DHT22;16277;48.890;2.306;2023-07-02T03:15:20;18.30;99.90
29255;DHT22;16277;48.890;2.306;2023-07-02T03:30:24;18.10;99.90
29255;DHT22;16277;48.890;2.306;2023-07-02T03:45:29;18.00;99.90
29255;DHT22;16277;48.890;2.306;2023-07-02T04:00:33;17.90;99.90
29255;DHT22;16277;48.890;2.306;2023-07-02T04:15:38;18.30;99.90
29255;DHT22;16277;48.890;2.306;2023-07-02T04:30:43;18.10;99.90
29255;DHT22;16277;48.890;2.306;2023-07-02T04:45:48;18.40;99.90
29255;DHT22;16277;48.890;2.306;2023-07-02T05:00:52;18.20;99.90
29255;DHT22;16277;48.890;2.306;2023-07-02T05:15:57;18.30;99.90
29255;DHT22;16277;48.890;2.306;2023-07-02T05:31:01;18.30;99.90
29255;DHT22;16277;48.890;2.306;2023-07-02T05:46:06;18.20;99.90
29255;DHT22;16277;48.890;2.306;2023-07-02T06:01:10;18.30;99.90
29255;DHT22;16277;48.890;2.306;2023-07-02T06:16:15;18.50;99.90
29255;DHT22;16277;48.890;2.306;2023-07-02T06:31:19;18.40;99.90
29255;DHT22;16277;48.890;2.306;2023-07-02T06:46:24;19.00;99.90
29255;DHT22;16277;48.890;2.306;2023-07-02T07:01:29;18.40;99.90
29255;DHT22;16277;48.890;2.306;2023-07-02T07:16:33;18.80;99.90
29255;DHT22;16277;48.890;2.306;2023-07-02T07:31:38;19.30;99.90
29255;DHT22;16277;48.890;2.306;2023-07-02T07:46:43;19.60;99.90
29255;DHT22;16277;48.890;2.306;2023-07-02T08:01:48;19.20;99.90
29255;DHT22;16277;48.890;2.306;2023-07-02T08:16:52;19.80;99.90
29255;DHT22;16277;48.890;2.306;2023-07-02T08:31:57;19.90;99.90
29255;DHT22;16277;48.890;2.306;2023-07-02T08:47:01;20.40;99.90
29255;DHT22;16277;48.890;2.306;2023-07-02T09:02:06;20.60;99.90
29255;DHT22;16277;48.890;2.306;2023-07-02T09:17:11;20.60;99.90
29255;DHT22;16277;48.890;2.306;2023-07-02T09:32:24;20.90;99.90
29255;DHT22;16277;48.890;2.306;2023-07-02T09:47:29;20.40;99.00
29255;DHT22;16277;48.890;2.306;2023-07-02T10:02:35;20.80;97.30
29255;DHT22;16277;48.890;2.306;2023-07-02T10:17:41;20.80;97.40
29255;DHT22;16277;48.890;2.306;2023-07-02T10:32:46;21.10;95.80
29255;DHT22;16277;48.890;2.306;2023-07-02T10:47:51;21.50;97.70
29255;DHT22;16277;48.890;2.306;2023-07-02T11:02:55;21.20;96.60
29255;DHT22;16277;48.890;2.306;2023-07-02T11:18:10;22.10;96.90
29255;DHT22;16277;48.890;2.306;2023-07-02T11:33:15;21.90;94.20
29255;DHT22;16277;48.890;2.306;2023-07-02T11:48:19;22.00;91.30
29255;DHT22;16277;48.890;2.306;2023-07-02T12:03:23;22.50;88.20
29255;DHT22;16277;48.890;2.306;2023-07-02T12:18:28;22.50;85.60
29255;DHT22;16277;48.890;2.306;2023-07-02T12:33:33;22.80;83.30
29255;DHT22;16277;48.890;2.306;2023-07-02T12:48:37;22.70;83.50
29255;DHT22;16277;48.890;2.306;2023-07-02T13:03:46;23.00;82.20
29255;DHT22;16277;48.890;2.306;2023-07-02T13:18:51;23.10;80.20
29255;DHT22;16277;48.890;2.306;2023-07-02T13:34:00;23.30;76.80
29255;DHT22;16277;48.890;2.306;2023-07-02T13:49:04;23.80;75.50
29255;DHT22;16277;48.890;2.306;2023-07-02T14:04:09;24.10;74.60
29255;DHT22;16277;48.890;2.306;2023-07-02T14:19:14;27.80;65.50
29255;DHT22;16277;48.890;2.306;2023-07-02T14:34:20;26.80;64.80
29255;DHT22;16277;48.890;2.306;2023-07-02T14:49:25;27.70;63.30
29255;DHT22;16277;48.890;2.306;2023-07-02T15:04:29;28.00;61.30
29255;DHT22;16277;48.890;2.306;2023-07-02T15:19:34;29.20;58.20
29255;DHT22;16277;48.890;2.306;2023-07-02T15:34:39;28.20;59.00
29255;DHT22;16277;48.890;2.306;2023-07-02T15:49:43;27.30;60.20
29255;DHT22;16277;48.890;2.306;2023-07-02T16:04:48;29.10;56.90
29255;DHT22;16277;48.890;2.306;2023-07-02T16:19:53;28.40;57.70
29255;DHT22;16277;48.890;2.306;2023-07-02T16:34:58;28.80;57.60
29255;DHT22;16277;48.890;2.306;2023-07-02T16:50:03;27.40;59.40
29255;DHT22;16277;48.890;2.306;2023-07-02T17:05:08;27.50;59.30
29255;DHT22;16277;48.890;2.306;2023-07-02T17:20:13;27.70;59.60
29255;DHT22;16277;48.890;2.306;2023-07-02T17:35:18;26.30;63.30
29255;DHT22;16277;48.890;2.306;2023-07-02T17:50:22;25.60;66.10
29255;DHT22;16277;48.890;2.306;2023-07-02T18:05:27;26.40;65.40
29255;DHT22;16277;48.890;2.306;2023-07-02T18:20:31;25.40;68.10
29255;DHT22;16277;48.890;2.306;2023-07-02T18:35:36;24.50;70.20
29255;DHT22;16277;48.890;2.306;2023-07-02T18:50:41;24.40;71.30
29255;DHT22;16277;48.890;2.306;2023-07-02T19:05:46;24.20;72.40
29255;DHT22;16277;48.890;2.306;2023-07-02T19:20:51;23.70;73.70
29255;DHT22;16277;48.890;2.306;2023-07-02T19:35:55;23.60;73.00
29255;DHT22;16277;48.890;2.306;2023-07-02T19:51:02;23.40;72.80
29255;DHT22;16277;48.890;2.306;2023-07-02T20:06:07;23.10;73.10
29255;DHT22;16277;48.890;2.306;2023-07-02T20:21:13;22.80;74.60
29255;DHT22;16277;48.890;2.306;2023-07-02T20:36:17;22.50;75.20
29255;DHT22;16277;48.890;2.306;2023-07-02T20:51:26;22.20;75.90
29255;DHT22;16277;48.890;2.306;2023-07-02T21:06:31;21.90;77.80
29255;DHT22;16277;48.890;2.306;2023-07-02T21:21:35;21.50;80.80
29255;DHT22;16277;48.890;2.306;2023-07-02T21:36:42;21.60;81.40
29255;DHT22;16277;48.890;2.306;2023-07-02T21:51:46;21.60;82.30
29255;DHT22;16277;48.890;2.306;2023-07-02T22:06:51;21.20;83.20
29255;DHT22;16277;48.890;2.306;2023-07-02T22:21:55;21.10;83.20
29255;DHT22;16277;48.890;2.306;2023-07-02T22:37:00;21.10;83.40
29255;DHT22;16277;48.890;2.306;2023-07-02T22:52:05;21.20;84.80
29255;DHT22;16277;48.890;2.306;2023-07-02T23:07:10;21.20;85.80
29255;DHT22;16277;48.890;2.306;2023-07-02T23:22:14;20.80;87.20
29255;DHT22;16277;48.890;2.306;2023-07-02T23:37:20;21.00;87.20
29255;DHT22;16277;48.890;2.306;2023-07-02T23:52:25;21.20;86.70
